Time;durP1;ratioP1;P1;durP2;ratioP2;P2;SDS_P1;SDS_P2;PMS_P1;PMS_P2;Temp;Humidity;BMP_temperature;BMP_pressure;BME280_temperature;BME280_humidity;BME280_pressure;Samples;Min_cycle;Max_cycle;Signal;HPM_P1;HPM_P2
2021/05/14 00:01:44;;;;;;;11.30;8.65;;;;;;;9.80;100.00;100684.13;3590252;39;20133;-59
2021/05/14 00:04:10;;;;;;;11.73;9.18;;;;;;;9.62;100.00;100684.75;3588468;39;20045;-59
2021/05/14 00:06:36;;;;;;;13.20;9.05;;;;;;;9.58;100.00;100685.16;3587622;40;20052;-59
2021/05/14 00:09:04;;;;;;;11.85;9.45;;;;;;;9.59;100.00;100681.50;3589384;39;20300;-60
2021/05/14 00:11:30;;;;;;;13.68;9.68;;;;;;;9.52;100.00;100674.94;3582047;40;20040;-61
2021/05/14 00:13:59;;;;;;;12.85;9.15;;;;;;;9.60;100.00;100675.13;3579248;39;20048;-60
2021/05/14 00:16:25;;;;;;;11.57;8.98;;;;;;;9.57;100.00;100675.38;3584244;39;20040;-60
2021/05/14 00:18:50;;;;;;;12.13;10.07;;;;;;;9.56;100.00;100673.69;3589546;39;20280;-59
2021/05/14 00:23:43;;;;;;;12.20;8.65;;;;;;;9.61;100.00;100675.00;3639624;22;20434;-61
2021/05/14 00:26:09;;;;;;;11.90;9.68;;;;;;;9.30;100.00;100671.44;3579382;40;20107;-60
2021/05/14 00:28:35;;;;;;;13.88;9.77;;;;;;;9.18;100.00;100669.81;3580811;40;20052;-60
2021/05/14 00:31:01;;;;;;;12.98;9.02;;;;;;;9.03;100.00;100666.59;3580432;40;20060;-60
2021/05/14 00:33:27;;;;;;;11.88;9.57;;;;;;;9.16;100.00;100666.38;3581116;40;20048;-61
2021/05/14 00:35:53;;;;;;;10.02;8.95;;;;;;;9.11;100.00;100670.34;3580353;40;20068;-59
2021/05/14 00:38:19;;;;;;;10.98;8.48;;;;;;;9.19;100.00;100671.53;3579186;40;20052;-61
2021/05/14 00:40:46;;;;;;;12.88;9.98;;;;;;;9.20;100.00;100670.50;3579626;40;20039;-60
2021/05/14 00:43:12;;;;;;;12.93;9.27;;;;;;;9.32;100.00;100673.97;3581115;40;20122;-60
2021/05/14 00:45:38;;;;;;;10.23;9.00;;;;;;;9.34;100.00;100674.72;3580696;40;20060;-60
2021/05/14 00:48:04;;;;;;;10.38;8.82;;;;;;;9.35;100.00;100671.91;3580835;40;20052;-60
2021/05/14 00:50:30;;;;;;;12.32;9.43;;;;;;;9.24;100.00;100669.28;3580455;40;20052;-60
2021/05/14 00:52:56;;;;;;;14.80;9.80;;;;;;;9.23;100.00;100667.56;3580197;40;20354;-60
2021/05/14 00:55:22;;;;;;;10.68;9.43;;;;;;;9.13;100.00;100667.53;3579730;40;20075;-61
2021/05/14 00:57:50;;;;;;;13.68;9.70;;;;;;;9.13;100.00;100667.53;3580675;40;20049;-61
2021/05/14 01:00:17;;;;;;;12.52;9.35;;;;;;;9.14;100.00;100671.06;3580358;40;20041;-61
2021/05/14 01:02:42;;;;;;;12.93;9.32;;;;;;;9.18;100.00;100672.50;3587301;39;20306;-59
2021/05/14 01:05:09;;;;;;;14.18;9.68;;;;;;;9.10;100.00;100674.00;3590850;39;20040;-60
2021/05/14 01:07:35;;;;;;;9.63;8.63;;;;;;;9.15;100.00;100676.28;3591011;40;20051;-60
2021/05/14 01:10:02;;;;;;;11.98;9.02;;;;;;;9.23;100.00;100664.88;3589853;39;20048;-60
2021/05/14 01:12:28;;;;;;;12.75;9.38;;;;;;;9.05;100.00;100675.38;3580396;40;20295;-60
2021/05/14 01:14:54;;;;;;;14.80;9.23;;;;;;;9.16;100.00;100666.38;3580766;40;20057;-60
2021/05/14 01:17:21;;;;;;;10.60;9.40;;;;;;;9.24;100.00;100670.13;3579784;40;20153;-60
2021/05/14 01:22:39;;;;;;;11.32;9.90;;;;;;;9.22;100.00;100682.84;3620643;22;20041;-59
2021/05/14 01:25:06;;;;;;;10.90;9.15;;;;;;;9.04;100.00;100684.41;3594056;39;20140;-61
2021/05/14 01:27:32;;;;;;;11.23;9.57;;;;;;;9.24;100.00;100683.53;3594247;39;20036;-60
2021/05/14 01:29:58;;;;;;;12.88;9.88;;;;;;;9.15;100.00;100678.13;3595266;39;20058;-60
2021/05/14 01:32:24;;;;;;;11.73;10.32;;;;;;;8.99;100.00;100684.78;3595219;39;20174;-60
2021/05/14 01:34:50;;;;;;;14.20;10.60;;;;;;;8.92;100.00;100680.91;3596054;39;20075;-59
2021/05/14 01:37:16;;;;;;;11.55;8.93;;;;;;;9.04;100.00;100673.66;3591346;39;20040;-60
2021/05/14 01:39:43;;;;;;;12.63;9.80;;;;;;;9.09;100.00;100680.34;3595383;39;20060;-60
2021/05/14 01:42:09;;;;;;;11.05;9.85;;;;;;;9.09;100.00;100677.66;3593601;39;20391;-60
2021/05/14 01:44:35;;;;;;;12.25;9.05;;;;;;;9.14;100.00;100684.47;3596929;39;20097;-60
2021/05/14 01:47:01;;;;;;;13.80;10.70;;;;;;;9.04;100.00;100682.59;3595727;39;20044;-58
2021/05/14 01:49:27;;;;;;;13.65;10.55;;;;;;;9.08;100.00;100678.66;3596244;39;20054;-58
2021/05/14 01:51:53;;;;;;;12.77;10.32;;;;;;;9.00;100.00;100669.56;3595265;39;20037;-62
2021/05/14 01:54:19;;;;;;;12.88;9.85;;;;;;;8.90;100.00;100677.53;3594190;39;20297;-59
2021/05/14 01:56:47;;;;;;;13.18;10.15;;;;;;;8.83;100.00;100679.88;3596169;39;20076;-59
2021/05/14 01:59:14;;;;;;;11.93;10.32;;;;;;;8.85;100.00;100677.03;3595806;39;20071;-59
2021/05/14 02:01:40;;;;;;;11.90;10.20;;;;;;;8.97;100.00;100678.72;3594991;39;20396;-60
2021/05/14 02:04:06;;;;;;;11.82;10.38;;;;;;;8.99;100.00;100681.25;3595247;39;20140;-58
2021/05/14 02:06:32;;;;;;;11.07;9.60;;;;;;;9.09;100.00;100682.19;3595372;39;20070;-58
2021/05/14 02:08:58;;;;;;;13.82;10.80;;;;;;;9.10;100.00;100678.53;3596291;39;20055;-59
2021/05/14 02:11:24;;;;;;;12.40;9.98;;;;;;;9.12;100.00;100682.75;3596228;39;20044;-59
2021/05/14 02:13:51;;;;;;;12.75;10.30;;;;;;;8.99;100.00;100682.09;3595238;39;20051;-58
2021/05/14 02:16:17;;;;;;;15.77;11.18;;;;;;;8.98;100.00;100677.75;3594626;39;20309;-59
2021/05/14 02:18:44;;;;;;;11.82;10.55;;;;;;;9.03;100.00;100677.34;3593935;39;20029;-60
2021/05/14 02:21:10;;;;;;;14.95;10.50;;;;;;;9.06;100.00;100685.13;3595704;39;20051;-59
2021/05/14 02:23:37;;;;;;;12.15;10.85;;;;;;;9.01;100.00;100676.59;3594831;39;20088;-59
2021/05/14 02:26:04;;;;;;;13.88;11.23;;;;;;;8.96;100.00;100682.38;3596518;39;20540;-59
2021/05/14 02:28:30;;;;;;;13.35;10.88;;;;;;;8.99;100.00;100681.25;3597051;39;20076;-59
2021/05/14 02:30:57;;;;;;;13.82;10.95;;;;;;;9.09;100.00;100683.03;3595621;39;20127;-60
2021/05/14 02:33:23;;;;;;;14.32;11.43;;;;;;;9.03;100.00;100672.81;3594280;39;20050;-59
2021/05/14 02:35:49;;;;;;;13.40;11.43;;;;;;;9.11;100.00;100675.72;3595248;39;20056;-59
2021/05/14 02:38:15;;;;;;;14.63;11.82;;;;;;;9.17;100.00;100684.22;3594026;39;20109;-60
2021/05/14 02:40:41;;;;;;;12.00;10.57;;;;;;;9.31;100.00;100681.19;3596522;39;20056;-59
2021/05/14 02:43:07;;;;;;;13.48;11.07;;;;;;;9.25;100.00;100687.09;3593572;39;20148;-60
2021/05/14 02:45:33;;;;;;;13.20;10.65;;;;;;;9.29;100.00;100672.44;3595788;39;20083;-58
2021/05/14 02:48:00;;;;;;;14.20;11.00;;;;;;;9.36;100.00;100680.78;3594748;39;20048;-59
2021/05/14 02:50:26;;;;;;;12.73;11.20;;;;;;;9.17;100.00;100674.34;3594203;39;20056;-60
2021/05/14 02:52:52;;;;;;;11.90;10.63;;;;;;;9.18;100.00;100673.34;3595850;39;20229;-59
2021/05/14 02:55:19;;;;;;;14.05;10.55;;;;;;;9.10;100.00;100676.69;3593790;39;20078;-59
2021/05/14 02:57:45;;;;;;;13.43;11.20;;;;;;;9.14;100.00;100673.72;3596081;39;20055;-59
2021/05/14 03:00:12;;;;;;;13.20;11.15;;;;;;;8.97;100.00;100667.97;3595954;39;20036;-59
2021/05/14 03:02:38;;;;;;;15.02;11.20;;;;;;;8.99;100.00;100670.53;3594576;39;20068;-59
2021/05/14 03:05:07;;;;;;;12.63;11.32;;;;;;;9.10;100.00;100668.63;3595259;39;20078;-59
2021/05/14 03:07:33;;;;;;;13.55;11.68;;;;;;;9.12;100.00;100676.56;3595172;39;20064;-59
2021/05/14 03:09:59;;;;;;;15.55;12.25;;;;;;;9.11;100.00;100673.03;3596720;39;20330;-59
2021/05/14 03:12:26;;;;;;;15.07;12.27;;;;;;;9.00;100.00;100667.72;3594234;39;20048;-59
2021/05/14 03:14:52;;;;;;;17.45;12.68;;;;;;;9.06;100.00;100666.34;3593362;39;20086;-59
2021/05/14 03:17:18;;;;;;;15.77;11.77;;;;;;;9.06;100.00;100677.91;3594894;39;20040;-59
2021/05/14 03:19:44;;;;;;;14.43;11.65;;;;;;;9.23;100.00;100668.44;3594251;39;20395;-60
2021/05/14 03:22:11;;;;;;;17.83;12.45;;;;;;;9.19;100.00;100676.88;3595227;39;20052;-59
2021/05/14 03:24:37;;;;;;;16.55;12.27;;;;;;;9.05;100.00;100670.84;3594657;39;20062;-60
2021/05/14 03:27:03;;;;;;;16.83;13.02;;;;;;;9.05;100.00;100675.38;3594413;39;20059;-58
2021/05/14 03:29:29;;;;;;;13.82;11.98;;;;;;;9.11;100.00;100670.34;3595498;39;20388;-61
2021/05/14 03:31:55;;;;;;;15.98;12.73;;;;;;;9.06;100.00;100672.56;3594819;39;20107;-59
2021/05/14 03:34:21;;;;;;;18.83;13.68;;;;;;;8.96;100.00;100677.00;3593529;39;20064;-61
2021/05/14 03:36:47;;;;;;;16.13;13.30;;;;;;;8.88;100.00;100668.78;3596720;39;20060;-60
2021/05/14 03:39:15;;;;;;;16.70;13.48;;;;;;;9.00;100.00;100670.41;3594929;39;20078;-59
2021/05/14 03:41:49;;;;;;;21.17;13.50;;;;;;;9.12;100.00;100674.72;3594481;39;20044;-58
2021/05/14 03:44:14;;;;;;;18.00;13.05;;;;;;;9.14;100.00;100685.31;3594130;39;20059;-59
2021/05/14 03:46:41;;;;;;;17.08;14.05;;;;;;;9.05;100.00;100673.53;3594527;39;20040;-61
2021/05/14 03:49:07;;;;;;;21.13;15.70;;;;;;;9.04;100.00;100665.59;3593669;39;20046;-60
2021/05/14 03:51:35;;;;;;;19.60;15.40;;;;;;;9.05;100.00;100667.31;3594856;39;20060;-59
2021/05/14 03:54:02;;;;;;;22.17;15.52;;;;;;;9.07;100.00;100668.06;3592518;39;20059;-59
2021/05/14 03:56:29;;;;;;;20.50;16.30;;;;;;;9.07;100.00;100668.91;3595400;39;20040;-59
2021/05/14 03:58:55;;;;;;;21.08;14.80;;;;;;;9.18;100.00;100669.81;3597153;39;20406;-58
2021/05/14 04:01:21;;;;;;;24.02;15.85;;;;;;;9.22;100.00;100666.72;3593015;39;20084;-59
2021/05/14 04:03:49;;;;;;;22.08;16.27;;;;;;;9.17;100.00;100670.78;3595248;39;20429;-59
2021/05/14 04:06:15;;;;;;;19.77;15.38;;;;;;;9.11;100.00;100670.34;3594996;39;20322;-59
2021/05/14 04:08:41;;;;;;;17.77;15.00;;;;;;;9.17;100.00;100676.16;3594833;39;20039;-60
2021/05/14 04:11:26;;;;;;;19.83;15.40;;;;;;;9.02;100.00;100676.47;3595756;39;20054;-61
2021/05/14 04:16:37;;;;;;;20.77;15.18;;;;;;;9.06;100.00;100677.91;3594923;39;20119;-59
2021/05/14 04:19:03;;;;;;;18.13;14.13;;;;;;;9.08;100.00;100675.97;3593375;39;20041;-59
2021/05/14 04:21:29;;;;;;;19.35;15.05;;;;;;;9.20;100.00;100673.19;3594850;39;20036;-59
2021/05/14 04:23:55;;;;;;;16.92;13.93;;;;;;;9.20;100.00;100676.75;3594099;39;20072;-59
2021/05/14 04:26:21;;;;;;;20.52;14.90;;;;;;;9.10;100.00;100673.16;3594018;39;20064;-59
2021/05/14 04:28:47;;;;;;;18.15;13.90;;;;;;;9.07;100.00;100676.94;3595769;39;20124;-60
2021/05/14 04:31:14;;;;;;;18.58;14.27;;;;;;;9.05;100.00;100668.16;3593579;39;20052;-59
2021/05/14 04:33:40;;;;;;;20.65;15.15;;;;;;;9.04;100.00;100677.22;3594927;39;20345;-60
2021/05/14 04:36:06;;;;;;;17.58;13.70;;;;;;;8.99;100.00;100668.69;3593618;39;20137;-59
2021/05/14 04:38:32;;;;;;;17.30;13.45;;;;;;;9.17;100.00;100670.78;3592345;39;20128;-59
2021/05/14 04:40:58;;;;;;;17.98;13.40;;;;;;;8.98;100.00;100675.06;3593496;39;20063;-60
2021/05/14 04:43:24;;;;;;;18.35;14.25;;;;;;;8.77;100.00;100675.88;3594895;39;20048;-60
2021/05/14 04:45:50;;;;;;;16.75;13.02;;;;;;;8.90;100.00;100674.84;3594048;39;20068;-61
2021/05/14 04:48:17;;;;;;;15.65;13.20;;;;;;;8.89;100.00;100673.13;3593947;39;20056;-60
2021/05/14 04:50:43;;;;;;;16.23;12.57;;;;;;;8.84;100.00;100678.06;3592484;39;20051;-59
2021/05/14 04:53:13;;;;;;;16.92;13.27;;;;;;;8.77;100.00;100672.34;3593467;39;20044;-59
2021/05/14 04:55:39;;;;;;;17.63;12.65;;;;;;;8.94;100.00;100679.81;3592464;39;20046;-58
2021/05/14 04:58:05;;;;;;;16.40;12.18;;;;;;;8.92;100.00;100679.09;3595150;39;20052;-59
2021/05/14 05:00:32;;;;;;;13.98;12.05;;;;;;;8.93;100.00;100688.00;3594216;39;20078;-60
2021/05/14 05:03:00;;;;;;;14.93;12.13;;;;;;;9.08;100.00;100680.47;3594755;39;20040;-59
2021/05/14 05:05:27;;;;;;;14.73;12.32;;;;;;;9.00;100.00;100681.13;3594052;39;20391;-60
2021/05/14 05:07:53;;;;;;;17.98;12.50;;;;;;;8.98;100.00;100679.56;3596254;39;20048;-59
2021/05/14 05:10:20;;;;;;;14.50;12.25;;;;;;;9.00;100.00;100688.34;3596897;39;20046;-59
2021/05/14 05:12:47;;;;;;;15.95;12.85;;;;;;;8.95;100.00;100688.72;3594941;39;20055;-58
2021/05/14 05:15:14;;;;;;;18.73;13.20;;;;;;;8.89;100.00;100687.41;3595180;39;20040;-59
2021/05/14 05:17:40;;;;;;;16.13;12.52;;;;;;;9.05;100.00;100681.56;3595966;39;20423;-59
2021/05/14 05:20:07;;;;;;;18.98;11.93;;;;;;;9.04;100.00;100690.63;3594663;39;20036;-60
2021/05/14 05:22:35;;;;;;;17.15;12.85;;;;;;;8.91;100.00;100695.34;3596467;39;20272;-59
2021/05/14 05:25:01;;;;;;;16.20;12.63;;;;;;;8.93;100.00;100690.69;3596102;39;20156;-59
2021/05/14 05:27:27;;;;;;;20.08;13.35;;;;;;;8.93;100.00;100698.75;3597182;39;20422;-58
2021/05/14 05:29:53;;;;;;;19.27;13.35;;;;;;;8.88;100.00;100696.44;3596478;39;20033;-58
2021/05/14 05:32:18;;;;;;;16.83;12.82;;;;;;;9.05;100.00;100697.69;3593766;39;20173;-59
2021/05/14 05:34:44;;;;;;;20.08;13.77;;;;;;;8.99;100.00;100695.53;3593697;39;20048;-59
2021/05/14 05:37:10;;;;;;;19.70;13.55;;;;;;;9.01;100.00;100701.63;3594749;39;20044;-60
2021/05/14 05:39:37;;;;;;;18.17;13.25;;;;;;;9.00;100.00;100704.44;3595149;39;20055;-59
2021/05/14 05:42:04;;;;;;;18.67;14.15;;;;;;;9.19;100.00;100703.75;3594447;39;20060;-59
2021/05/14 05:44:30;;;;;;;15.52;12.73;;;;;;;9.24;100.00;100705.03;3593841;39;20036;-59
2021/05/14 05:46:56;;;;;;;19.98;14.13;;;;;;;9.23;100.00;100707.84;3596759;39;20036;-59
2021/05/14 05:49:22;;;;;;;18.55;12.77;;;;;;;9.16;100.00;100710.22;3595240;39;21446;-60
2021/05/14 05:51:48;;;;;;;18.30;13.75;;;;;;;9.24;100.00;100720.31;3594424;39;20055;-59
2021/05/14 05:54:14;;;;;;;18.77;13.80;;;;;;;9.14;100.00;100717.53;3596051;39;20044;-59
2021/05/14 05:56:43;;;;;;;16.15;13.20;;;;;;;9.20;100.00;100717.03;3596613;39;20058;-59
2021/05/14 05:59:12;;;;;;;19.33;13.93;;;;;;;9.35;100.00;100717.56;3596286;39;20054;-59
2021/05/14 06:01:38;;;;;;;16.02;12.90;;;;;;;9.32;100.00;100720.50;3596858;39;20048;-59
2021/05/14 06:04:04;;;;;;;18.45;14.13;;;;;;;9.33;100.00;100721.34;3596186;39;20056;-60
2021/05/14 06:06:30;;;;;;;18.23;13.82;;;;;;;9.25;100.00;100730.06;3596334;39;20048;-59
2021/05/14 06:08:56;;;;;;;19.42;13.45;;;;;;;9.19;100.00;100722.53;3596758;39;20141;-60
2021/05/14 06:11:22;;;;;;;18.92;13.27;;;;;;;9.15;100.00;100723.78;3596295;39;20074;-59
2021/05/14 06:13:48;;;;;;;18.92;13.05;;;;;;;9.27;100.00;100728.09;3597384;39;20346;-60
2021/05/14 06:16:17;;;;;;;22.75;13.70;;;;;;;9.40;100.00;100739.47;3596123;39;20468;-59
2021/05/14 06:18:48;;;;;;;19.70;13.10;;;;;;;9.44;100.00;100735.56;3597040;39;20044;-60
2021/05/14 06:21:14;;;;;;;20.77;13.80;;;;;;;9.32;100.00;100735.75;3596586;39;20067;-59
2021/05/14 06:23:40;;;;;;;20.10;13.75;;;;;;;9.35;100.00;100748.91;3596812;39;20092;-58
2021/05/14 06:26:06;;;;;;;20.83;13.07;;;;;;;9.42;100.00;100745.59;3596989;39;20047;-58
2021/05/14 06:28:32;;;;;;;20.83;13.55;;;;;;;9.55;100.00;100749.91;3597375;39;20102;-59
2021/05/14 06:30:59;;;;;;;17.40;12.05;;;;;;;9.47;100.00;100746.03;3596854;39;20395;-58
2021/05/14 06:33:27;;;;;;;16.75;12.23;;;;;;;9.57;100.00;100751.47;3596326;39;20040;-61
2021/05/14 06:35:53;;;;;;;16.40;12.05;;;;;;;9.55;100.00;100749.91;3596848;39;20051;-61
2021/05/14 06:38:19;;;;;;;16.08;12.27;;;;;;;9.47;100.00;100750.56;3596692;39;20136;-59
2021/05/14 06:40:45;;;;;;;16.42;12.30;;;;;;;9.48;100.00;100746.88;3597554;39;20145;-59
2021/05/14 06:43:11;;;;;;;18.10;12.32;;;;;;;9.55;100.00;100747.22;3596344;39;20096;-61
2021/05/14 06:45:37;;;;;;;17.48;12.45;;;;;;;9.70;100.00;100753.97;3597273;39;20060;-60
2021/05/14 06:48:06;;;;;;;15.07;12.23;;;;;;;9.78;100.00;100754.13;3596244;39;20417;-60
2021/05/14 06:50:32;;;;;;;13.82;11.13;;;;;;;9.78;100.00;100754.13;3596469;39;20059;-59
2021/05/14 06:52:58;;;;;;;11.75;9.77;;;;;;;9.89;100.00;100755.03;3596817;39;20079;-61
2021/05/14 06:55:25;;;;;;;11.52;9.48;;;;;;;9.99;100.00;100754.09;3596735;39;20048;-59
2021/05/14 06:57:50;;;;;;;12.55;10.35;;;;;;;10.09;100.00;100754.13;3596688;39;20048;-59
2021/05/14 07:00:18;;;;;;;11.77;8.90;;;;;;;10.21;100.00;100759.41;3596835;39;20071;-59
2021/05/14 07:02:45;;;;;;;11.55;9.43;;;;;;;10.16;100.00;100757.97;3596727;39;20052;-59
2021/05/14 07:05:13;;;;;;;10.63;9.50;;;;;;;10.46;100.00;100769.72;3594533;39;20051;-61
2021/05/14 07:07:39;;;;;;;14.10;10.32;;;;;;;10.48;100.00;100766.88;3596436;39;20051;-59
2021/05/14 07:10:06;;;;;;;13.00;10.85;;;;;;;10.40;100.00;100772.97;3596343;39;20036;-59
2021/05/14 07:12:34;;;;;;;13.95;10.60;;;;;;;10.25;100.00;100771.63;3596728;39;20056;-60
2021/05/14 07:15:00;;;;;;;12.13;10.13;;;;;;;10.36;100.00;100774.22;3595988;39;20341;-59
2021/05/14 07:17:26;;;;;;;12.00;10.70;;;;;;;10.20;100.00;100771.16;3596110;39;20059;-59
2021/05/14 07:19:52;;;;;;;10.20;9.20;;;;;;;10.46;100.00;100777.78;3596469;39;20059;-60
2021/05/14 07:22:19;;;;;;;10.45;8.45;;;;;;;10.40;100.00;100778.34;3595927;39;20052;-58
2021/05/14 07:24:45;;;;;;;10.00;8.98;;;;;;;10.20;100.00;100780.06;3595881;39;20048;-59
2021/05/14 07:27:13;;;;;;;9.65;8.65;;;;;;;10.24;100.00;100778.81;3593114;39;20094;-60
2021/05/14 07:29:39;;;;;;;10.20;9.20;;;;;;;10.23;100.00;100778.94;3595864;39;20157;-58
2021/05/14 07:32:06;;;;;;;11.27;9.80;;;;;;;9.93;100.00;100781.50;3590688;39;20412;-61
2021/05/14 07:34:32;;;;;;;12.88;9.88;;;;;;;9.88;100.00;100790.97;3594553;39;20040;-60
2021/05/14 07:36:58;;;;;;;10.23;8.52;;;;;;;10.07;100.00;100785.69;3595320;39;20071;-59
2021/05/14 07:39:24;;;;;;;11.38;8.93;;;;;;;10.23;100.00;100787.03;3595034;39;20047;-59
2021/05/14 07:41:50;;;;;;;10.20;8.30;;;;;;;10.12;100.00;100777.22;3594820;39;20116;-59
2021/05/14 07:44:17;;;;;;;13.18;8.82;;;;;;;10.16;100.00;100784.88;3594982;39;20064;-58
2021/05/14 07:46:43;;;;;;;13.95;9.57;;;;;;;10.10;100.00;100780.06;3596630;39;20048;-61
2021/05/14 07:49:09;;;;;;;13.55;10.02;;;;;;;10.05;100.00;100782.28;3593892;39;20129;-59
2021/05/14 07:51:35;;;;;;;11.52;9.25;;;;;;;10.29;100.00;100778.41;3595328;39;20044;-58
2021/05/14 07:54:01;;;;;;;11.52;9.18;;;;;;;10.33;100.00;100790.59;3594280;39;20048;-61
2021/05/14 07:56:28;;;;;;;13.20;9.95;;;;;;;10.42;100.00;100787.13;3595631;39;20040;-59
2021/05/14 07:58:53;;;;;;;12.82;9.32;;;;;;;10.55;100.00;100784.19;3596107;39;20051;-59
2021/05/14 08:01:19;;;;;;;10.15;8.68;;;;;;;10.66;100.00;100781.38;3594880;39;20052;-59
2021/05/14 08:03:45;;;;;;;12.05;8.82;;;;;;;10.62;100.00;100785.34;3595464;39;20052;-59
2021/05/14 08:06:11;;;;;;;10.50;9.05;;;;;;;10.80;100.00;100790.03;3595048;39;20318;-59
2021/05/14 08:08:39;;;;;;;12.55;9.02;;;;;;;10.99;100.00;100792.75;3594952;39;20128;-62
2021/05/14 08:11:05;;;;;;;11.95;9.45;;;;;;;11.02;100.00;100783.56;3594974;39;20508;-59
2021/05/14 08:13:32;;;;;;;12.18;9.20;;;;;;;11.11;100.00;100785.38;3594927;39;20051;-61
2021/05/14 08:15:59;;;;;;;10.52;8.52;;;;;;;11.05;100.00;100791.34;3595154;39;20056;-58
2021/05/14 08:18:26;;;;;;;11.27;9.00;;;;;;;11.04;100.00;100787.81;3595012;39;20040;-59
2021/05/14 08:20:52;;;;;;;11.38;9.65;;;;;;;11.07;100.00;100791.22;3595570;39;20040;-59
2021/05/14 08:23:20;;;;;;;12.18;9.23;;;;;;;11.22;100.00;100793.34;3593700;39;20429;-60
2021/05/14 08:25:46;;;;;;;10.70;9.60;;;;;;;10.98;100.00;100783.00;3595230;39;20052;-60
2021/05/14 08:28:12;;;;;;;11.57;8.77;;;;;;;11.30;100.00;100795.31;3594176;39;20059;-60
2021/05/14 08:30:40;;;;;;;10.13;8.63;;;;;;;11.21;100.00;100791.63;3595332;39;20048;-60
2021/05/14 08:33:06;;;;;;;10.63;9.40;;;;;;;11.24;100.00;100795.06;3594894;39;20403;-62
2021/05/14 08:35:32;;;;;;;12.63;9.30;;;;;;;11.26;100.00;100793.06;3595394;39;20051;-59
2021/05/14 08:37:58;;;;;;;10.88;8.65;;;;;;;11.60;100.00;100792.59;3594471;39;20433;-61
2021/05/14 08:40:24;;;;;;;12.48;10.15;;;;;;;11.34;100.00;100785.13;3596036;39;20051;-60
2021/05/14 08:42:51;;;;;;;11.73;10.00;;;;;;;11.26;100.00;100790.34;3596139;39;20051;-62
2021/05/14 08:45:17;;;;;;;12.13;9.57;;;;;;;11.23;100.00;100783.41;3595924;39;20056;-62
2021/05/14 08:47:45;;;;;;;11.82;9.50;;;;;;;11.28;100.00;100780.28;3597111;39;20043;-60
2021/05/14 08:50:13;;;;;;;15.23;10.18;;;;;;;11.22;100.00;100779.88;3594480;39;20120;-61
2021/05/14 08:52:41;;;;;;;12.60;10.00;;;;;;;11.15;100.00;100785.97;3594666;39;20053;-60
2021/05/14 08:55:08;;;;;;;11.50;9.90;;;;;;;11.14;100.00;100785.09;3595653;39;20050;-60
2021/05/14 08:57:35;;;;;;;14.68;9.70;;;;;;;11.28;100.00;100791.06;3597935;39;20093;-60
2021/05/14 09:00:01;;;;;;;11.32;9.75;;;;;;;11.41;100.00;100780.84;3598214;39;20056;-61
2021/05/14 09:02:27;;;;;;;12.93;9.48;;;;;;;11.15;100.00;100799.44;3597369;39;20100;-61
2021/05/14 09:04:54;;;;;;;13.10;9.77;;;;;;;11.34;100.00;100795.91;3596895;39;20048;-61
2021/05/14 09:07:20;;;;;;;12.65;10.35;;;;;;;11.29;100.00;100804.41;3596510;39;20048;-61
2021/05/14 09:10:07;;;;;;;11.20;9.13;;;;;;;11.56;100.00;100794.75;3597471;39;20036;-61
2021/05/14 09:12:34;;;;;;;12.27;9.73;;;;;;;11.80;100.00;100799.66;3586152;40;20320;-61
2021/05/14 09:15:18;;;;;;;15.10;10.43;;;;;;;12.09;100.00;100814.94;3595101;39;20068;-61
2021/05/14 09:18:01;;;;;;;11.43;9.85;;;;;;;11.91;100.00;100812.97;3595880;39;20075;-60
2021/05/14 09:20:30;;;;;;;13.75;9.48;;;;;;;12.04;100.00;100815.38;3592199;39;20309;-60
2021/05/14 09:22:56;;;;;;;13.02;9.38;;;;;;;12.18;100.00;100822.16;3595661;39;20177;-61
2021/05/14 09:25:22;;;;;;;10.63;8.93;;;;;;;12.34;100.00;100816.13;3596093;39;20068;-60
2021/05/14 09:27:48;;;;;;;12.25;9.48;;;;;;;12.44;100.00;100819.63;3597466;39;20087;-60
2021/05/14 09:30:15;;;;;;;11.10;8.55;;;;;;;12.39;100.00;100812.97;3596024;39;20120;-60
2021/05/14 09:32:41;;;;;;;9.90;8.80;;;;;;;12.16;100.00;100810.66;3596051;39;20056;-61
2021/05/14 09:35:08;;;;;;;10.15;8.98;;;;;;;12.02;100.00;100821.91;3595479;39;20055;-61
2021/05/14 09:37:46;;;;;;;11.82;9.32;;;;;;;11.78;100.00;100815.13;3592178;39;20067;-61
2021/05/14 09:40:15;;;;;;;11.27;9.23;;;;;;;11.95;100.00;100827.03;3592891;39;20040;-61
2021/05/14 09:42:41;;;;;;;12.48;9.18;;;;;;;12.05;100.00;100827.84;3594969;39;20300;-60
2021/05/14 09:45:19;;;;;;;11.70;9.02;;;;;;;11.94;100.00;100824.47;3595905;39;20068;-62
2021/05/14 09:47:57;;;;;;;10.10;8.20;;;;;;;12.32;100.00;100825.34;3595951;39;20089;-61
2021/05/14 09:50:31;;;;;;;11.77;9.30;;;;;;;12.07;100.00;100823.19;3596332;39;20052;-61
2021/05/14 09:53:06;;;;;;;10.85;8.85;;;;;;;12.32;100.00;100828.06;3595607;39;20076;-61
2021/05/14 09:55:34;;;;;;;10.38;8.38;;;;;;;12.59;100.00;100825.38;3592028;39;20044;-61
2021/05/14 09:58:03;;;;;;;10.60;7.93;;;;;;;12.73;100.00;100821.31;3595833;39;20292;-61
2021/05/14 10:00:29;;;;;;;13.32;8.73;;;;;;;12.78;100.00;100819.00;3596014;39;20131;-61
2021/05/14 10:02:58;;;;;;;10.93;8.25;;;;;;;13.00;100.00;100824.13;3595494;39;20046;-61
2021/05/14 10:05:25;;;;;;;12.27;8.77;;;;;;;12.96;100.00;100818.19;3594969;39;20563;-61
2021/05/14 10:07:51;;;;;;;10.05;8.80;;;;;;;12.80;100.00;100826.97;3595587;39;20040;-60
2021/05/14 10:10:19;;;;;;;11.60;8.27;;;;;;;12.92;100.00;100824.91;3596269;39;20099;-61
2021/05/14 10:12:49;;;;;;;9.38;8.32;;;;;;;13.15;100.00;100828.84;3595539;39;20077;-61
2021/05/14 10:15:15;;;;;;;10.75;7.65;;;;;;;13.54;100.00;100827.69;3596898;39;20064;-61
2021/05/14 10:17:46;;;;;;;10.27;7.70;;;;;;;13.51;100.00;100829.88;3595888;39;20041;-61
2021/05/14 10:20:13;;;;;;;9.60;6.93;;;;;;;14.15;100.00;100828.66;3595334;39;20043;-61
2021/05/14 10:22:40;;;;;;;9.88;6.78;;;;;;;14.12;100.00;100822.69;3597033;39;20044;-61
2021/05/14 10:25:07;;;;;;;10.60;7.60;;;;;;;13.81;100.00;100821.34;3596225;39;20144;-61
2021/05/14 10:27:41;;;;;;;8.60;6.68;;;;;;;14.36;100.00;100824.69;3596266;39;20421;-61
2021/05/14 10:30:09;;;;;;;12.32;7.32;;;;;;;14.17;100.00;100831.19;3595972;39;20047;-61
2021/05/14 10:32:51;;;;;;;9.68;6.95;;;;;;;13.81;100.00;100823.19;3596178;39;20184;-60
2021/05/14 10:35:24;;;;;;;10.32;7.28;;;;;;;14.18;100.00;100822.06;3595162;39;20044;-61
2021/05/14 10:37:52;;;;;;;9.48;7.68;;;;;;;14.49;100.00;100824.25;3596158;39;20048;-62
2021/05/14 10:40:43;;;;;;;10.88;6.95;;;;;;;14.81;100.00;100828.97;3596091;39;20055;-60
2021/05/14 10:43:12;;;;;;;9.88;7.75;;;;;;;14.32;100.00;100826.88;3596774;39;20318;-61
2021/05/14 10:45:40;;;;;;;10.60;7.82;;;;;;;14.53;100.00;100823.78;3596566;39;20137;-60
2021/05/14 10:48:16;;;;;;;10.95;7.00;;;;;;;15.02;100.00;100822.25;3596213;39;20094;-61
2021/05/14 10:50:44;;;;;;;11.57;7.38;;;;;;;14.77;100.00;100821.34;3596465;39;20056;-61
2021/05/14 10:53:36;;;;;;;9.60;7.45;;;;;;;15.37;100.00;100823.81;3596282;39;20152;-59
2021/05/14 10:56:25;;;;;;;12.63;7.25;;;;;;;14.57;100.00;100826.16;3596430;39;20036;-59
2021/05/14 10:58:52;;;;;;;13.00;7.55;;;;;;;14.18;100.00;100828.31;3596671;39;20046;-60
2021/05/14 11:01:30;;;;;;;9.98;7.63;;;;;;;14.41;100.00;100821.50;3595833;39;20047;-61
2021/05/14 11:03:57;;;;;;;10.00;6.55;;;;;;;15.02;100.00;100825.81;3596836;39;20121;-60
2021/05/14 11:06:24;;;;;;;11.02;6.93;;;;;;;15.31;100.00;100827.22;3596260;39;20050;-61
2021/05/14 11:09:01;;;;;;;9.70;6.85;;;;;;;15.39;100.00;100827.22;3596763;39;20056;-62
2021/05/14 11:11:27;;;;;;;10.35;6.25;;;;;;;15.66;100.00;100817.03;3596430;39;20052;-61
2021/05/14 11:13:55;;;;;;;14.15;6.88;;;;;;;14.88;100.00;100818.31;3596499;39;20442;-59
2021/05/14 11:16:37;;;;;;;11.90;7.25;;;;;;;14.75;100.00;100826.91;3596297;39;20072;-61
2021/05/14 11:19:11;;;;;;;10.23;6.53;;;;;;;15.28;100.00;100830.25;3596325;39;20064;-61